sensor_id;sensor_type;location;lat;lon;timestamp;P1;durP1;ratioP1;P2;durP2;ratioP2
75516;SDS011;64097;52.548;13.406;2022-11-25T06:01:51;33.50;;;21.73;;
75516;SDS011;64097;52.548;13.406;2022-11-25T06:04:17;31.25;;;19.15;;
75516;SDS011;64097;52.548;13.406;2022-11-25T06:06:43;30.35;;;19.48;;
75516;SDS011;64097;52.548;13.406;2022-11-25T06:09:09;31.58;;;20.42;;
75516;SDS011;64097;52.548;13.406;2022-11-25T06:11:35;30.33;;;20.30;;
75516;SDS011;64097;52.548;13.406;2022-11-25T06:14:00;31.95;;;20.30;;
75516;SDS011;64097;52.548;13.406;2022-11-25T06:16:26;31.10;;;21.13;;
75516;SDS011;64097;52.548;13.406;2022-11-25T06:18:52;26.55;;;19.00;;
75516;SDS011;64097;52.548;13.406;2022-11-25T06:21:18;29.65;;;20.63;;
75516;SDS011;64097;52.548;13.406;2022-11-25T06:23:44;30.35;;;21.58;;
75516;SDS011;64097;52.548;13.406;2022-11-25T06:26:14;29.17;;;19.63;;
75516;SDS011;64097;52.548;13.406;2022-11-25T06:28:45;25.15;;;17.42;;
75516;SDS011;64097;52.548;13.406;2022-11-25T06:31:16;30.90;;;20.77;;
75516;SDS011;64097;52.548;13.406;2022-11-25T06:33:46;30.38;;;20.02;;
75516;SDS011;64097;52.548;13.406;2022-11-25T06:36:14;29.60;;;19.55;;
75516;SDS011;64097;52.548;13.406;2022-11-25T06:38:43;30.27;;;20.17;;
75516;SDS011;64097;52.548;13.406;2022-11-25T06:41:13;32.67;;;22.40;;
75516;SDS011;64097;52.548;13.406;2022-11-25T06:43:39;33.22;;;21.88;;
75516;SDS011;64097;52.548;13.406;2022-11-25T06:46:06;36.92;;;23.02;;
75516;SDS011;64097;52.548;13.406;2022-11-25T06:48:34;35.28;;;22.27;;
75516;SDS011;64097;52.548;13.406;2022-11-25T06:51:01;29.20;;;19.27;;
75516;SDS011;64097;52.548;13.406;2022-11-25T06:53:29;30.67;;;20.83;;
75516;SDS011;64097;52.548;13.406;2022-11-25T06:58:31;27.63;;;19.05;;
75516;SDS011;64097;52.548;13.406;2022-11-25T07:01:05;33.22;;;21.85;;
75516;SDS011;64097;52.548;13.406;2022-11-25T07:03:41;28.35;;;18.83;;
75516;SDS011;64097;52.548;13.406;2022-11-25T07:06:08;29.83;;;20.10;;
75516;SDS011;64097;52.548;13.406;2022-11-25T07:08:35;31.75;;;20.23;;
75516;SDS011;64097;52.548;13.406;2022-11-25T07:11:11;31.13;;;20.25;;
75516;SDS011;64097;52.548;13.406;2022-11-25T07:13:43;33.40;;;21.58;;
75516;SDS011;64097;52.548;13.406;2022-11-25T07:16:10;34.15;;;20.58;;
75516;SDS011;64097;52.548;13.406;2022-11-25T07:18:37;32.90;;;20.48;;
75516;SDS011;64097;52.548;13.406;2022-11-25T07:21:08;35.95;;;21.67;;
75516;SDS011;64097;52.548;13.406;2022-11-25T07:23:34;33.97;;;20.90;;
75516;SDS011;64097;52.548;13.406;2022-11-25T07:26:01;34.78;;;21.17;;
75516;SDS011;64097;52.548;13.406;2022-11-25T07:28:28;38.90;;;22.60;;
75516;SDS011;64097;52.548;13.406;2022-11-25T07:30:54;37.42;;;21.80;;
75516;SDS011;64097;52.548;13.406;2022-11-25T07:33:19;30.70;;;18.88;;
75516;SDS011;64097;52.548;13.406;2022-11-25T07:35:45;36.85;;;20.55;;
75516;SDS011;64097;52.548;13.406;2022-11-25T07:38:11;35.90;;;20.38;;
75516;SDS011;64097;52.548;13.406;2022-11-25T07:40:36;35.60;;;19.58;;
75516;SDS011;64097;52.548;13.406;2022-11-25T07:43:02;36.53;;;21.30;;
75516;SDS011;64097;52.548;13.406;2022-11-25T07:45:28;37.80;;;20.98;;
75516;SDS011;64097;52.548;13.406;2022-11-25T07:47:53;37.45;;;20.50;;
75516;SDS011;64097;52.548;13.406;2022-11-25T07:50:19;35.83;;;20.15;;
75516;SDS011;64097;52.548;13.406;2022-11-25T07:52:45;42.00;;;21.77;;
75516;SDS011;64097;52.548;13.406;2022-11-25T07:55:11;38.88;;;21.42;;
75516;SDS011;64097;52.548;13.406;2022-11-25T07:57:36;39.67;;;20.80;;
75516;SDS011;64097;52.548;13.406;2022-11-25T08:00:02;39.95;;;20.77;;
75516;SDS011;64097;52.548;13.406;2022-11-25T08:02:29;38.92;;;20.77;;
75516;SDS011;64097;52.548;13.406;2022-11-25T08:04:54;36.60;;;20.92;;
75516;SDS011;64097;52.548;13.406;2022-11-25T08:07:20;34.63;;;20.38;;
75516;SDS011;64097;52.548;13.406;2022-11-25T08:09:46;36.92;;;19.42;;
75516;SDS011;64097;52.548;13.406;2022-11-25T08:12:11;35.45;;;20.42;;
75516;SDS011;64097;52.548;13.406;2022-11-25T08:14:37;33.47;;;18.10;;
75516;SDS011;64097;52.548;13.406;2022-11-25T08:17:03;35.08;;;19.50;;
75516;SDS011;64097;52.548;13.406;2022-11-25T08:19:30;35.20;;;19.23;;
75516;SDS011;64097;52.548;13.406;2022-11-25T08:21:56;33.80;;;19.40;;
75516;SDS011;64097;52.548;13.406;2022-11-25T08:24:22;29.02;;;17.27;;
75516;SDS011;64097;52.548;13.406;2022-11-25T08:26:48;34.63;;;18.15;;
75516;SDS011;64097;52.548;13.406;2022-11-25T08:29:16;30.80;;;17.40;;
75516;SDS011;64097;52.548;13.406;2022-11-25T08:31:43;30.27;;;17.92;;
75516;SDS011;64097;52.548;13.406;2022-11-25T08:34:09;27.95;;;16.60;;
75516;SDS011;64097;52.548;13.406;2022-11-25T08:36:45;26.77;;;16.00;;
75516;SDS011;64097;52.548;13.406;2022-11-25T08:39:10;29.25;;;16.55;;
75516;SDS011;64097;52.548;13.406;2022-11-25T08:41:36;30.08;;;17.63;;
75516;SDS011;64097;52.548;13.406;2022-11-25T08:44:03;31.85;;;18.10;;
75516;SDS011;64097;52.548;13.406;2022-11-25T08:46:31;29.05;;;16.08;;
75516;SDS011;64097;52.548;13.406;2022-11-25T08:49:00;28.77;;;16.00;;
75516;SDS011;64097;52.548;13.406;2022-11-25T08:51:28;28.27;;;15.85;;
75516;SDS011;64097;52.548;13.406;2022-11-25T08:53:55;26.08;;;15.82;;
75516;SDS011;64097;52.548;13.406;2022-11-25T08:56:22;26.70;;;15.25;;
75516;SDS011;64097;52.548;13.406;2022-11-25T08:58:48;27.23;;;16.25;;
75516;SDS011;64097;52.548;13.406;2022-11-25T09:01:17;28.05;;;16.23;;
75516;SDS011;64097;52.548;13.406;2022-11-25T09:03:44;24.88;;;15.48;;
75516;SDS011;64097;52.548;13.406;2022-11-25T09:06:12;22.77;;;15.15;;
75516;SDS011;64097;52.548;13.406;2022-11-25T09:08:39;21.80;;;14.40;;
75516;SDS011;64097;52.548;13.406;2022-11-25T09:11:06;21.35;;;14.02;;
75516;SDS011;64097;52.548;13.406;2022-11-25T09:13:33;23.70;;;15.18;;
75516;SDS011;64097;52.548;13.406;2022-11-25T09:15:59;26.83;;;16.27;;
75516;SDS011;64097;52.548;13.406;2022-11-25T09:18:28;25.88;;;15.88;;
75516;SDS011;64097;52.548;13.406;2022-11-25T09:20:55;25.05;;;15.50;;
75516;SDS011;64097;52.548;13.406;2022-11-25T09:23:22;27.33;;;17.02;;
75516;SDS011;64097;52.548;13.406;2022-11-25T09:25:54;24.95;;;16.00;;
75516;SDS011;64097;52.548;13.406;2022-11-25T09:28:21;31.05;;;17.85;;
75516;SDS011;64097;52.548;13.406;2022-11-25T09:30:53;27.52;;;16.90;;
75516;SDS011;64097;52.548;13.406;2022-11-25T09:33:19;27.02;;;15.52;;
75516;SDS011;64097;52.548;13.406;2022-11-25T09:35:45;25.25;;;15.25;;
75516;SDS011;64097;52.548;13.406;2022-11-25T09:38:12;27.25;;;17.10;;
75516;SDS011;64097;52.548;13.406;2022-11-25T09:43:17;23.45;;;15.30;;
75516;SDS011;64097;52.548;13.406;2022-11-25T09:46:35;27.15;;;17.63;;
75516;SDS011;64097;52.548;13.406;2022-11-25T09:51:56;29.20;;;17.42;;
75516;SDS011;64097;52.548;13.406;2022-11-25T09:54:36;27.58;;;17.02;;
75516;SDS011;64097;52.548;13.406;2022-11-25T10:02:38;30.23;;;18.90;;
75516;SDS011;64097;52.548;13.406;2022-11-25T10:07:40;28.58;;;16.70;;
75516;SDS011;64097;52.548;13.406;2022-11-25T10:10:21;28.48;;;17.98;;
75516;SDS011;64097;52.548;13.406;2022-11-25T10:12:52;27.80;;;17.88;;
75516;SDS011;64097;52.548;13.406;2022-11-25T10:17:52;25.48;;;16.90;;
75516;SDS011;64097;52.548;13.406;2022-11-25T10:20:22;29.10;;;18.75;;
75516;SDS011;64097;52.548;13.406;2022-11-25T10:23:04;24.92;;;16.38;;
75516;SDS011;64097;52.548;13.406;2022-11-25T10:25:41;28.10;;;18.38;;
75516;SDS011;64097;52.548;13.406;2022-11-25T10:36:15;26.70;;;17.67;;
75516;SDS011;64097;52.548;13.406;2022-11-25T10:39:00;31.17;;;19.80;;
75516;SDS011;64097;52.548;13.406;2022-11-25T10:41:32;33.65;;;21.90;;
75516;SDS011;64097;52.548;13.406;2022-11-25T10:44:02;33.42;;;21.13;;
75516;SDS011;64097;52.548;13.406;2022-11-25T10:51:54;32.47;;;20.48;;
75516;SDS011;64097;52.548;13.406;2022-11-25T10:54:22;31.27;;;20.77;;
75516;SDS011;64097;52.548;13.406;2022-11-25T10:56:51;31.45;;;20.65;;
75516;SDS011;64097;52.548;13.406;2022-11-25T10:59:21;31.35;;;21.00;;
75516;SDS011;64097;52.548;13.406;2022-11-25T11:01:50;30.15;;;20.40;;
75516;SDS011;64097;52.548;13.406;2022-11-25T11:04:17;31.52;;;21.45;;
75516;SDS011;64097;52.548;13.406;2022-11-25T11:06:45;30.95;;;20.35;;
75516;SDS011;64097;52.548;13.406;2022-11-25T11:12:06;35.72;;;23.90;;
75516;SDS011;64097;52.548;13.406;2022-11-25T11:14:36;36.45;;;23.95;;
75516;SDS011;64097;52.548;13.406;2022-11-25T11:17:02;33.10;;;23.52;;
75516;SDS011;64097;52.548;13.406;2022-11-25T11:19:28;33.75;;;22.80;;
75516;SDS011;64097;52.548;13.406;2022-11-25T11:21:55;37.47;;;25.52;;
75516;SDS011;64097;52.548;13.406;2022-11-25T11:24:37;35.72;;;23.80;;
75516;SDS011;64097;52.548;13.406;2022-11-25T11:27:13;32.85;;;23.77;;
75516;SDS011;64097;52.548;13.406;2022-11-25T11:29:41;33.58;;;24.30;;
75516;SDS011;64097;52.548;13.406;2022-11-25T11:32:13;32.40;;;22.70;;
75516;SDS011;64097;52.548;13.406;2022-11-25T11:37:40;30.67;;;21.92;;
75516;SDS011;64097;52.548;13.406;2022-11-25T11:43:20;27.05;;;18.85;;
75516;SDS011;64097;52.548;13.406;2022-11-25T11:51:22;28.13;;;20.70;;
75516;SDS011;64097;52.548;13.406;2022-11-25T11:54:17;28.77;;;21.67;;
75516;SDS011;64097;52.548;13.406;2022-11-25T12:10:21;30.98;;;23.27;;
75516;SDS011;64097;52.548;13.406;2022-11-25T12:12:59;29.17;;;21.70;;
75516;SDS011;64097;52.548;13.406;2022-11-25T12:20:58;28.67;;;20.58;;
75516;SDS011;64097;52.548;13.406;2022-11-25T12:26:05;28.27;;;21.27;;
75516;SDS011;64097;52.548;13.406;2022-11-25T12:28:42;28.42;;;20.88;;
75516;SDS011;64097;52.548;13.406;2022-11-25T12:39:10;31.40;;;21.85;;
75516;SDS011;64097;52.548;13.406;2022-11-25T12:42:04;29.52;;;21.85;;
75516;SDS011;64097;52.548;13.406;2022-11-25T12:44:43;31.80;;;23.80;;
75516;SDS011;64097;52.548;13.406;2022-11-25T12:47:23;28.80;;;21.95;;
75516;SDS011;64097;52.548;13.406;2022-11-25T12:49:50;30.13;;;21.48;;
75516;SDS011;64097;52.548;13.406;2022-11-25T12:55:13;27.30;;;19.85;;
75516;SDS011;64097;52.548;13.406;2022-11-25T12:57:47;29.83;;;22.75;;
75516;SDS011;64097;52.548;13.406;2022-11-25T13:00:43;32.30;;;23.17;;
75516;SDS011;64097;52.548;13.406;2022-11-25T13:08:59;32.72;;;24.02;;
75516;SDS011;64097;52.548;13.406;2022-11-25T13:17:12;28.13;;;20.30;;
75516;SDS011;64097;52.548;13.406;2022-11-25T13:19:39;25.98;;;19.05;;
75516;SDS011;64097;52.548;13.406;2022-11-25T13:22:05;26.25;;;19.60;;
75516;SDS011;64097;52.548;13.406;2022-11-25T13:24:56;25.50;;;18.30;;
75516;SDS011;64097;52.548;13.406;2022-11-25T13:30:40;22.58;;;17.30;;
75516;SDS011;64097;52.548;13.406;2022-11-25T13:35:36;20.85;;;15.52;;
75516;SDS011;64097;52.548;13.406;2022-11-25T13:38:33;25.10;;;17.80;;
75516;SDS011;64097;52.548;13.406;2022-11-25T13:40:59;22.88;;;16.73;;
75516;SDS011;64097;52.548;13.406;2022-11-25T13:43:26;22.77;;;17.50;;
75516;SDS011;64097;52.548;13.406;2022-11-25T13:45:52;24.75;;;17.50;;
75516;SDS011;64097;52.548;13.406;2022-11-25T13:48:20;23.48;;;17.08;;
75516;SDS011;64097;52.548;13.406;2022-11-25T13:50:50;25.15;;;17.55;;
75516;SDS011;64097;52.548;13.406;2022-11-25T13:53:36;23.25;;;16.55;;
75516;SDS011;64097;52.548;13.406;2022-11-25T13:56:15;19.00;;;14.68;;
75516;SDS011;64097;52.548;13.406;2022-11-25T14:07:29;18.75;;;13.95;;
75516;SDS011;64097;52.548;13.406;2022-11-25T14:19:21;26.63;;;18.30;;
75516;SDS011;64097;52.548;13.406;2022-11-25T14:24:49;25.58;;;18.00;;
75516;SDS011;64097;52.548;13.406;2022-11-25T14:27:21;31.23;;;21.55;;
75516;SDS011;64097;52.548;13.406;2022-11-25T14:30:02;27.50;;;20.15;;
75516;SDS011;64097;52.548;13.406;2022-11-25T14:32:36;32.22;;;20.73;;
75516;SDS011;64097;52.548;13.406;2022-11-25T14:38:10;27.15;;;19.23;;
75516;SDS011;64097;52.548;13.406;2022-11-25T14:40:56;25.97;;;18.07;;
75516;SDS011;64097;52.548;13.406;2022-11-25T14:43:26;20.80;;;14.73;;
75516;SDS011;64097;52.548;13.406;2022-11-25T14:46:10;19.60;;;14.40;;
75516;SDS011;64097;52.548;13.406;2022-11-25T14:48:54;16.70;;;13.30;;
75516;SDS011;64097;52.548;13.406;2022-11-25T14:51:24;18.02;;;13.20;;
75516;SDS011;64097;52.548;13.406;2022-11-25T14:53:57;17.83;;;13.13;;
75516;SDS011;64097;52.548;13.406;2022-11-25T14:56:33;17.73;;;14.00;;
75516;SDS011;64097;52.548;13.406;2022-11-25T14:59:00;18.42;;;13.35;;
75516;SDS011;64097;52.548;13.406;2022-11-25T15:01:27;19.10;;;12.80;;
75516;SDS011;64097;52.548;13.406;2022-11-25T15:04:05;19.30;;;13.77;;
75516;SDS011;64097;52.548;13.406;2022-11-25T15:06:38;17.77;;;13.23;;
75516;SDS011;64097;52.548;13.406;2022-11-25T15:09:41;19.50;;;14.43;;
75516;SDS011;64097;52.548;13.406;2022-11-25T15:12:09;18.73;;;13.98;;
75516;SDS011;64097;52.548;13.406;2022-11-25T15:14:39;22.65;;;16.63;;
75516;SDS011;64097;52.548;13.406;2022-11-25T15:17:20;22.38;;;15.88;;
75516;SDS011;64097;52.548;13.406;2022-11-25T15:19:54;18.42;;;14.60;;
75516;SDS011;64097;52.548;13.406;2022-11-25T15:22:22;20.02;;;14.32;;
75516;SDS011;64097;52.548;13.406;2022-11-25T15:24:49;22.58;;;16.05;;
75516;SDS011;64097;52.548;13.406;2022-11-25T15:27:23;19.83;;;15.10;;
75516;SDS011;64097;52.548;13.406;2022-11-25T15:29:51;18.90;;;14.27;;
75516;SDS011;64097;52.548;13.406;2022-11-25T15:32:18;18.92;;;13.32;;
75516;SDS011;64097;52.548;13.406;2022-11-25T15:34:52;20.90;;;15.30;;
75516;SDS011;64097;52.548;13.406;2022-11-25T15:37:19;23.13;;;15.77;;
75516;SDS011;64097;52.548;13.406;2022-11-25T15:39:45;22.67;;;16.45;;
75516;SDS011;64097;52.548;13.406;2022-11-25T15:44:52;21.63;;;15.65;;
75516;SDS011;64097;52.548;13.406;2022-11-25T15:47:25;19.83;;;14.45;;
75516;SDS011;64097;52.548;13.406;2022-11-25T15:50:02;20.30;;;14.60;;
75516;SDS011;64097;52.548;13.406;2022-11-25T15:52:48;21.50;;;15.70;;
75516;SDS011;64097;52.548;13.406;2022-11-25T15:57:57;21.80;;;16.33;;
75516;SDS011;64097;52.548;13.406;2022-11-25T16:01:14;21.25;;;15.82;;
75516;SDS011;64097;52.548;13.406;2022-11-25T16:03:43;24.13;;;17.58;;
75516;SDS011;64097;52.548;13.406;2022-11-25T16:06:17;21.83;;;16.42;;
75516;SDS011;64097;52.548;13.406;2022-11-25T16:08:54;22.13;;;16.55;;
75516;SDS011;64097;52.548;13.406;2022-11-25T16:11:22;24.05;;;17.25;;
75516;SDS011;64097;52.548;13.406;2022-11-25T16:13:50;26.63;;;17.77;;
75516;SDS011;64097;52.548;13.406;2022-11-25T16:29:09;22.13;;;16.00;;
75516;SDS011;64097;52.548;13.406;2022-11-25T16:31:42;22.35;;;16.55;;
75516;SDS011;64097;52.548;13.406;2022-11-25T16:34:12;23.60;;;17.30;;
75516;SDS011;64097;52.548;13.406;2022-11-25T16:36:39;24.00;;;17.33;;
75516;SDS011;64097;52.548;13.406;2022-11-25T16:39:05;23.20;;;16.10;;
75516;SDS011;64097;52.548;13.406;2022-11-25T16:41:30;25.02;;;17.88;;
75516;SDS011;64097;52.548;13.406;2022-11-25T16:43:57;24.45;;;17.20;;
75516;SDS011;64097;52.548;13.406;2022-11-25T16:46:23;22.55;;;17.05;;
75516;SDS011;64097;52.548;13.406;2022-11-25T16:48:49;23.50;;;17.30;;
75516;SDS011;64097;52.548;13.406;2022-11-25T16:51:17;22.95;;;17.05;;
75516;SDS011;64097;52.548;13.406;2022-11-25T16:53:45;23.90;;;17.90;;
75516;SDS011;64097;52.548;13.406;2022-11-25T16:56:18;23.83;;;17.20;;
75516;SDS011;64097;52.548;13.406;2022-11-25T16:58:48;25.30;;;18.15;;
75516;SDS011;64097;52.548;13.406;2022-11-25T17:01:15;24.83;;;17.17;;
75516;SDS011;64097;52.548;13.406;2022-11-25T17:03:42;21.85;;;16.10;;
75516;SDS011;64097;52.548;13.406;2022-11-25T17:06:10;23.42;;;17.15;;
75516;SDS011;64097;52.548;13.406;2022-11-25T17:08:40;23.95;;;16.23;;
75516;SDS011;64097;52.548;13.406;2022-11-25T17:11:08;22.55;;;16.40;;
75516;SDS011;64097;52.548;13.406;2022-11-25T17:13:40;21.50;;;16.13;;
75516;SDS011;64097;52.548;13.406;2022-11-25T17:16:08;22.00;;;16.95;;
75516;SDS011;64097;52.548;13.406;2022-11-25T17:18:40;24.70;;;16.33;;
75516;SDS011;64097;52.548;13.406;2022-11-25T17:21:07;23.52;;;17.15;;
75516;SDS011;64097;52.548;13.406;2022-11-25T17:23:36;24.58;;;18.23;;
75516;SDS011;64097;52.548;13.406;2022-11-25T17:26:02;23.30;;;17.75;;
75516;SDS011;64097;52.548;13.406;2022-11-25T17:28:27;24.25;;;18.23;;
75516;SDS011;64097;52.548;13.406;2022-11-25T17:30:53;26.27;;;18.27;;
75516;SDS011;64097;52.548;13.406;2022-11-25T17:33:19;23.75;;;17.08;;
75516;SDS011;64097;52.548;13.406;2022-11-25T17:35:45;23.67;;;17.10;;
75516;SDS011;64097;52.548;13.406;2022-11-25T17:38:13;24.52;;;18.02;;
75516;SDS011;64097;52.548;13.406;2022-11-25T17:40:45;26.23;;;17.58;;
75516;SDS011;64097;52.548;13.406;2022-11-25T17:43:12;22.42;;;16.85;;
75516;SDS011;64097;52.548;13.406;2022-11-25T17:45:40;24.75;;;17.20;;
75516;SDS011;64097;52.548;13.406;2022-11-25T17:48:14;24.00;;;17.25;;
75516;SDS011;64097;52.548;13.406;2022-11-25T17:50:41;24.45;;;16.88;;
75516;SDS011;64097;52.548;13.406;2022-11-25T17:53:07;22.63;;;16.30;;
75516;SDS011;64097;52.548;13.406;2022-11-25T17:55:36;23.52;;;16.88;;
75516;SDS011;64097;52.548;13.406;2022-11-25T17:58:03;21.90;;;16.13;;
75516;SDS011;64097;52.548;13.406;2022-11-25T18:00:31;23.25;;;16.77;;
75516;SDS011;64097;52.548;13.406;2022-11-25T18:02:57;20.48;;;16.05;;
75516;SDS011;64097;52.548;13.406;2022-11-25T18:05:24;25.25;;;17.45;;
75516;SDS011;64097;52.548;13.406;2022-11-25T18:07:51;21.83;;;16.15;;
75516;SDS011;64097;52.548;13.406;2022-11-25T18:10:18;20.17;;;15.40;;
75516;SDS011;64097;52.548;13.406;2022-11-25T18:12:50;23.77;;;17.38;;
75516;SDS011;64097;52.548;13.406;2022-11-25T18:15:19;22.75;;;17.13;;
75516;SDS011;64097;52.548;13.406;2022-11-25T18:17:47;23.80;;;16.52;;
75516;SDS011;64097;52.548;13.406;2022-11-25T18:20:20;23.13;;;17.02;;
75516;SDS011;64097;52.548;13.406;2022-11-25T18:22:48;24.17;;;16.73;;
75516;SDS011;64097;52.548;13.406;2022-11-25T18:25:16;21.95;;;16.40;;
75516;SDS011;64097;52.548;13.406;2022-11-25T18:27:43;21.35;;;16.63;;
75516;SDS011;64097;52.548;13.406;2022-11-25T18:30:16;22.00;;;16.48;;
75516;SDS011;64097;52.548;13.406;2022-11-25T18:32:45;22.83;;;16.88;;
75516;SDS011;64097;52.548;13.406;2022-11-25T18:35:15;21.92;;;16.27;;
75516;SDS011;64097;52.548;13.406;2022-11-25T18:37:46;21.98;;;16.63;;
75516;SDS011;64097;52.548;13.406;2022-11-25T18:40:12;23.17;;;17.10;;
75516;SDS011;64097;52.548;13.406;2022-11-25T18:42:40;22.17;;;15.90;;
75516;SDS011;64097;52.548;13.406;2022-11-25T18:45:14;23.27;;;17.25;;
75516;SDS011;64097;52.548;13.406;2022-11-25T18:47:45;19.27;;;15.13;;
75516;SDS011;64097;52.548;13.406;2022-11-25T18:50:32;22.30;;;17.20;;
75516;SDS011;64097;52.548;13.406;2022-11-25T18:52:57;24.50;;;17.55;;
75516;SDS011;64097;52.548;13.406;2022-11-25T18:55:22;23.15;;;16.17;;
75516;SDS011;64097;52.548;13.406;2022-11-25T18:57:50;21.58;;;15.98;;
75516;SDS011;64097;52.548;13.406;2022-11-25T19:00:21;24.67;;;17.13;;
75516;SDS011;64097;52.548;13.406;2022-11-25T19:02:49;23.88;;;16.92;;
75516;SDS011;64097;52.548;13.406;2022-11-25T19:07:46;27.75;;;19.27;;
75516;SDS011;64097;52.548;13.406;2022-11-25T19:10:13;24.98;;;17.80;;
75516;SDS011;64097;52.548;13.406;2022-11-25T19:12:40;25.33;;;18.10;;
75516;SDS011;64097;52.548;13.406;2022-11-25T19:15:09;25.77;;;18.80;;
75516;SDS011;64097;52.548;13.406;2022-11-25T19:17:37;27.52;;;20.27;;
75516;SDS011;64097;52.548;13.406;2022-11-25T19:20:13;26.30;;;19.00;;
75516;SDS011;64097;52.548;13.406;2022-11-25T19:22:41;23.17;;;17.17;;
75516;SDS011;64097;52.548;13.406;2022-11-25T19:25:07;25.55;;;18.50;;
75516;SDS011;64097;52.548;13.406;2022-11-25T19:27:40;25.85;;;19.05;;
75516;SDS011;64097;52.548;13.406;2022-11-25T19:30:30;24.90;;;18.10;;
75516;SDS011;64097;52.548;13.406;2022-11-25T19:32:57;24.23;;;17.92;;
75516;SDS011;64097;52.548;13.406;2022-11-25T19:35:25;23.85;;;17.80;;
75516;SDS011;64097;52.548;13.406;2022-11-25T19:38:00;27.50;;;19.80;;
75516;SDS011;64097;52.548;13.406;2022-11-25T19:40:27;26.55;;;19.02;;
75516;SDS011;64097;52.548;13.406;2022-11-25T19:42:54;25.23;;;18.60;;
75516;SDS011;64097;52.548;13.406;2022-11-25T19:45:20;25.83;;;18.83;;
75516;SDS011;64097;52.548;13.406;2022-11-25T19:47:47;24.45;;;18.50;;
75516;SDS011;64097;52.548;13.406;2022-11-25T19:50:21;25.95;;;18.23;;
75516;SDS011;64097;52.548;13.406;2022-11-25T19:52:50;28.33;;;19.00;;
75516;SDS011;64097;52.548;13.406;2022-11-25T19:57:47;26.52;;;18.70;;
75516;SDS011;64097;52.548;13.406;2022-11-25T20:00:14;26.13;;;18.17;;
75516;SDS011;64097;52.548;13.406;2022-11-25T20:02:41;26.48;;;16.80;;
75516;SDS011;64097;52.548;13.406;2022-11-25T20:05:08;25.25;;;18.40;;
75516;SDS011;64097;52.548;13.406;2022-11-25T20:07:36;25.23;;;18.75;;
75516;SDS011;64097;52.548;13.406;2022-11-25T20:10:12;26.65;;;18.60;;
75516;SDS011;64097;52.548;13.406;2022-11-25T20:12:42;27.50;;;19.02;;
75516;SDS011;64097;52.548;13.406;2022-11-25T20:15:08;27.05;;;18.73;;
75516;SDS011;64097;52.548;13.406;2022-11-25T20:17:34;35.45;;;23.90;;
75516;SDS011;64097;52.548;13.406;2022-11-25T20:20:05;32.05;;;21.40;;
75516;SDS011;64097;52.548;13.406;2022-11-25T20:22:38;28.13;;;19.95;;
75516;SDS011;64097;52.548;13.406;2022-11-25T20:25:07;28.23;;;19.83;;
75516;SDS011;64097;52.548;13.406;2022-11-25T20:27:35;26.73;;;19.35;;
75516;SDS011;64097;52.548;13.406;2022-11-25T20:30:01;25.65;;;19.17;;
75516;SDS011;64097;52.548;13.406;2022-11-25T20:32:28;26.95;;;19.33;;
75516;SDS011;64097;52.548;13.406;2022-11-25T20:34:55;25.35;;;17.95;;
75516;SDS011;64097;52.548;13.406;2022-11-25T20:37:23;24.98;;;18.33;;
75516;SDS011;64097;52.548;13.406;2022-11-25T20:39:50;22.08;;;16.52;;
75516;SDS011;64097;52.548;13.406;2022-11-25T20:42:21;22.15;;;15.52;;
75516;SDS011;64097;52.548;13.406;2022-11-25T20:44:48;17.63;;;12.85;;
75516;SDS011;64097;52.548;13.406;2022-11-25T20:47:15;18.33;;;12.90;;
75516;SDS011;64097;52.548;13.406;2022-11-25T20:49:43;17.58;;;12.43;;
75516;SDS011;64097;52.548;13.406;2022-11-25T20:52:14;15.68;;;11.38;;
75516;SDS011;64097;52.548;13.406;2022-11-25T20:54:43;16.83;;;11.25;;
75516;SDS011;64097;52.548;13.406;2022-11-25T20:57:08;15.32;;;10.60;;
75516;SDS011;64097;52.548;13.406;2022-11-25T20:59:34;13.82;;;9.27;;
75516;SDS011;64097;52.548;13.406;2022-11-25T21:02:01;13.15;;;9.65;;
75516;SDS011;64097;52.548;13.406;2022-11-25T21:04:27;15.48;;;11.15;;
75516;SDS011;64097;52.548;13.406;2022-11-25T21:06:53;16.17;;;11.98;;
75516;SDS011;64097;52.548;13.406;2022-11-25T21:09:20;14.10;;;9.93;;
75516;SDS011;64097;52.548;13.406;2022-11-25T21:11:49;15.20;;;9.43;;
75516;SDS011;64097;52.548;13.406;2022-11-25T21:14:15;16.05;;;11.20;;
75516;SDS011;64097;52.548;13.406;2022-11-25T21:16:42;15.05;;;12.00;;
75516;SDS011;64097;52.548;13.406;2022-11-25T21:19:08;14.43;;;10.38;;
75516;SDS011;64097;52.548;13.406;2022-11-25T21:21:34;13.68;;;9.73;;
75516;SDS011;64097;52.548;13.406;2022-11-25T21:24:15;16.00;;;11.27;;
75516;SDS011;64097;52.548;13.406;2022-11-25T21:26:56;13.65;;;9.93;;
75516;SDS011;64097;52.548;13.406;2022-11-25T21:29:24;17.35;;;11.00;;
75516;SDS011;64097;52.548;13.406;2022-11-25T21:31:51;12.45;;;9.27;;
75516;SDS011;64097;52.548;13.406;2022-11-25T21:34:17;11.07;;;8.85;;
75516;SDS011;64097;52.548;13.406;2022-11-25T21:36:43;11.40;;;8.80;;
75516;SDS011;64097;52.548;13.406;2022-11-25T21:39:29;12.90;;;9.43;;
75516;SDS011;64097;52.548;13.406;2022-11-25T21:41:57;14.82;;;10.73;;
75516;SDS011;64097;52.548;13.406;2022-11-25T21:44:33;11.90;;;9.02;;
75516;SDS011;64097;52.548;13.406;2022-11-25T21:47:04;10.70;;;8.57;;
75516;SDS011;64097;52.548;13.406;2022-11-25T21:49:40;13.52;;;10.65;;
75516;SDS011;64097;52.548;13.406;2022-11-25T21:52:06;9.93;;;8.65;;
75516;SDS011;64097;52.548;13.406;2022-11-25T21:54:32;13.65;;;9.88;;
75516;SDS011;64097;52.548;13.406;2022-11-25T21:56:57;11.38;;;9.93;;
75516;SDS011;64097;52.548;13.406;2022-11-25T21:59:23;11.00;;;9.82;;
75516;SDS011;64097;52.548;13.406;2022-11-25T22:01:50;10.98;;;9.23;;
75516;SDS011;64097;52.548;13.406;2022-11-25T22:04:18;10.70;;;8.48;;
75516;SDS011;64097;52.548;13.406;2022-11-25T22:06:45;10.95;;;8.90;;
75516;SDS011;64097;52.548;13.406;2022-11-25T22:09:11;9.20;;;7.97;;
75516;SDS011;64097;52.548;13.406;2022-11-25T22:11:39;8.73;;;7.82;;
75516;SDS011;64097;52.548;13.406;2022-11-25T22:14:12;11.20;;;9.38;;
75516;SDS011;64097;52.548;13.406;2022-11-25T22:16:52;10.10;;;8.25;;
75516;SDS011;64097;52.548;13.406;2022-11-25T22:19:20;8.80;;;7.90;;
75516;SDS011;64097;52.548;13.406;2022-11-25T22:21:47;9.20;;;8.18;;
75516;SDS011;64097;52.548;13.406;2022-11-25T22:24:14;11.25;;;8.48;;
75516;SDS011;64097;52.548;13.406;2022-11-25T22:26:41;9.95;;;8.45;;
75516;SDS011;64097;52.548;13.406;2022-11-25T22:29:17;8.93;;;7.97;;
75516;SDS011;64097;52.548;13.406;2022-11-25T22:31:45;10.45;;;8.63;;
75516;SDS011;64097;52.548;13.406;2022-11-25T22:34:15;9.43;;;8.43;;
75516;SDS011;64097;52.548;13.406;2022-11-25T22:36:44;9.30;;;8.05;;
75516;SDS011;64097;52.548;13.406;2022-11-25T22:39:20;10.13;;;8.40;;
75516;SDS011;64097;52.548;13.406;2022-11-25T22:41:58;10.20;;;8.75;;
75516;SDS011;64097;52.548;13.406;2022-11-25T22:46:57;9.75;;;8.65;;
75516;SDS011;64097;52.548;13.406;2022-11-25T22:51:54;9.93;;;8.90;;
75516;SDS011;64097;52.548;13.406;2022-11-25T22:54:20;9.38;;;8.38;;
75516;SDS011;64097;52.548;13.406;2022-11-25T22:56:47;9.13;;;8.18;;